createdAt,value
2022-08-05T00:01:00.940Z,56.99
2022-08-05T00:02:07.880Z,57.29
2022-08-05T00:02:58.429Z,58.28
2022-08-05T00:03:58.414Z,58.09
2022-08-05T00:04:58.416Z,57.69
2022-08-05T00:06:04.961Z,57.92
2022-08-05T00:06:58.414Z,58.61
2022-08-05T00:08:00.158Z,58.91
2022-08-05T00:08:58.417Z,58.71
2022-08-05T00:09:58.419Z,59.21
2022-08-05T00:11:00.927Z,59.11
2022-08-05T00:11:59.772Z,58.81
2022-08-05T00:12:58.423Z,59.11
2022-08-05T00:13:58.428Z,58.51
2022-08-05T00:14:58.425Z,58.22
2022-08-05T00:16:00.340Z,58.64
2022-08-05T00:16:58.442Z,58.81
2022-08-05T00:17:58.433Z,59.11
2022-08-05T00:18:58.922Z,59.23
2022-08-05T00:20:02.411Z,59.23
2022-08-05T00:20:58.435Z,59.34
2022-08-05T00:21:58.436Z,59.23
2022-08-05T00:23:02.491Z,59.94
2022-08-05T00:24:10.622Z,59.83
2022-08-05T00:24:58.442Z,58.64
2022-08-05T00:25:58.441Z,60.03
2022-08-05T00:26:58.700Z,60.13
2022-08-05T00:27:58.449Z,59.34
2022-08-05T00:28:58.447Z,59.34
2022-08-05T00:29:58.453Z,59.23
2022-08-05T00:30:58.449Z,59.04
2022-08-05T00:32:11.001Z,60.33
2022-08-05T00:32:58.452Z,60.13
2022-08-05T00:34:56.930Z,60.76
2022-08-05T00:35:06.804Z,60.96
2022-08-05T00:36:16.062Z,61.36
2022-08-05T00:37:10.690Z,61.66
2022-08-05T00:37:58.455Z,61.69
2022-08-05T00:38:59.447Z,61.46
2022-08-05T00:39:59.288Z,61.09
2022-08-05T00:40:58.461Z,61.09
2022-08-05T00:41:58.465Z,61.55
2022-08-05T00:42:58.474Z,61.69
2022-08-05T00:43:58.468Z,61.88
2022-08-05T00:44:58.466Z,61.82
2022-08-05T00:45:58.469Z,62.51
2022-08-05T00:47:02.973Z,63.51
2022-08-05T00:48:05.500Z,61.71
2022-08-05T00:48:58.471Z,61.82
2022-08-05T00:49:58.472Z,62.12
2022-08-05T00:50:58.473Z,61.71
2022-08-05T00:51:58.476Z,61.02
2022-08-05T00:52:58.473Z,60.89
2022-08-05T00:54:02.565Z,60.59
2022-08-05T00:54:58.472Z,59.89
2022-08-05T00:55:58.474Z,60.49
2022-08-05T00:56:58.478Z,61.09
2022-08-05T00:57:59.374Z,60.89
2022-08-05T00:58:58.479Z,61.25
2022-08-05T00:59:58.482Z,60.86
2022-08-05T01:00:58.560Z,60.79
2022-08-05T01:01:58.547Z,60.66
2022-08-05T01:02:59.946Z,60.96
2022-08-05T01:03:58.485Z,61.39
2022-08-05T01:04:58.487Z,61.09
2022-08-05T01:05:58.488Z,60.76
2022-08-05T01:06:58.485Z,61.39
2022-08-05T01:08:39.898Z,61.66
2022-08-05T01:08:58.486Z,61.79
2022-08-05T01:09:58.488Z,61.36
2022-08-05T01:10:58.486Z,61.58
2022-08-05T01:12:01.911Z,61.69
2022-08-05T01:13:05.414Z,61.99
2022-08-05T01:13:59.724Z,62.59
2022-08-05T01:14:58.492Z,63.18
2022-08-05T01:15:58.493Z,63.18
2022-08-05T01:16:58.497Z,63.08
2022-08-05T01:17:58.493Z,63.88
2022-08-05T01:18:58.492Z,63.68
2022-08-05T01:20:01.510Z,63.68
2022-08-05T01:20:58.496Z,63.58
2022-08-05T01:21:58.494Z,63.88
2022-08-05T01:22:58.496Z,63.58
2022-08-05T01:23:58.495Z,64.58
2022-08-05T01:24:58.496Z,64.07
2022-08-05T01:25:58.495Z,63.98
2022-08-05T01:26:58.500Z,63.78
2022-08-05T01:27:58.514Z,64.78
2022-08-05T01:29:04.307Z,64.58
2022-08-05T01:29:58.501Z,65.27
2022-08-05T01:30:58.500Z,64.78
2022-08-05T01:31:58.514Z,65.41
2022-08-05T01:32:58.510Z,65.47
2022-08-05T01:33:58.500Z,65.41
2022-08-05T01:34:58.501Z,65.27
2022-08-05T01:35:58.502Z,65.41
2022-08-05T01:37:00.500Z,65.57
2022-08-05T01:37:58.503Z,65.70
2022-08-05T01:39:00.926Z,65.80
2022-08-05T01:39:59.022Z,66.50
2022-08-05T01:40:58.501Z,66.30
2022-08-05T01:41:58.505Z,66.00
2022-08-05T01:42:58.504Z,65.70
2022-08-05T01:43:58.517Z,66.20
2022-08-05T01:44:59.148Z,66.20
2022-08-05T01:45:58.507Z,65.61
2022-08-05T01:46:58.508Z,66.10
2022-08-05T01:47:58.508Z,66.00
2022-08-05T01:48:58.506Z,66.50
2022-08-05T01:50:01.862Z,65.61
2022-08-05T01:50:58.509Z,66.70
2022-08-05T01:51:58.818Z,66.50
2022-08-05T01:52:58.507Z,67.33
2022-08-05T01:53:58.978Z,67.63
2022-08-05T01:54:58.511Z,67.33
2022-08-05T01:55:58.504Z,67.33
2022-08-05T01:58:10.131Z,67.73
2022-08-05T01:58:11.342Z,67.43
2022-08-05T01:58:58.509Z,67.43
2022-08-05T01:59:58.511Z,67.43
2022-08-05T02:00:58.519Z,67.83
2022-08-05T02:01:58.908Z,67.33
2022-08-05T02:02:58.513Z,67.63
2022-08-05T02:03:58.512Z,68.13
2022-08-05T02:04:58.511Z,67.66
2022-08-05T02:06:00.892Z,67.96
2022-08-05T02:06:58.519Z,68.16
2022-08-05T02:08:01.067Z,68.46
2022-08-05T02:08:59.327Z,68.76
2022-08-05T02:09:58.515Z,68.16
2022-08-05T02:10:58.515Z,68.16
2022-08-05T02:11:58.518Z,67.96
2022-08-05T02:12:58.518Z,68.26
2022-08-05T02:13:58.516Z,68.66
2022-08-05T02:14:58.515Z,68.06
2022-08-05T02:15:58.517Z,68.46
2022-08-05T02:16:58.518Z,68.36
2022-08-05T02:18:32.992Z,68.76
2022-08-05T02:18:58.523Z,68.76
2022-08-05T02:19:58.517Z,69.46
2022-08-05T02:20:58.711Z,69.16
2022-08-05T02:21:58.518Z,69.16
2022-08-05T02:22:58.524Z,69.39
2022-08-05T02:23:58.518Z,68.96
2022-08-05T02:25:00.091Z,68.79
2022-08-05T02:25:58.519Z,68.89
2022-08-05T02:26:58.519Z,68.96
2022-08-05T02:28:00.322Z,70.19
2022-08-05T02:28:58.578Z,69.76
2022-08-05T02:30:00.728Z,69.20
2022-08-05T02:30:58.521Z,69.26
2022-08-05T02:31:58.520Z,69.39
2022-08-05T02:32:58.522Z,69.49
2022-08-05T02:33:58.528Z,69.16
2022-08-05T02:34:58.522Z,68.86
2022-08-05T02:36:00.823Z,69.16
2022-08-05T02:36:58.521Z,68.86
2022-08-05T02:38:00.180Z,69.26
2022-08-05T02:38:58.556Z,68.76
2022-08-05T02:39:58.523Z,68.76
2022-08-05T02:40:58.525Z,70.16
2022-08-05T02:42:01.286Z,68.96
2022-08-05T02:42:58.524Z,69.29
2022-08-05T02:44:06.151Z,69.16
2022-08-05T02:44:58.523Z,69.26
2022-08-05T02:45:58.523Z,69.39
2022-08-05T02:47:00.662Z,69.26
2022-08-05T02:48:11.576Z,68.89
2022-08-05T02:48:58.530Z,69.36
2022-08-05T02:49:58.526Z,69.29
2022-08-05T02:50:58.525Z,69.76
2022-08-05T02:52:04.031Z,69.46
2022-08-05T02:52:58.530Z,70.79
2022-08-05T02:54:04.006Z,70.26
2022-08-05T02:54:58.531Z,70.09
2022-08-05T02:56:00.351Z,70.56
2022-08-05T02:56:58.532Z,69.76
2022-08-05T02:58:10.336Z,70.29
2022-08-05T02:58:58.525Z,70.65
2022-08-05T02:59:59.373Z,70.29
2022-08-05T03:00:58.530Z,70.65
2022-08-05T03:01:58.569Z,70.26
2022-08-05T03:02:58.528Z,70.16
2022-08-05T03:04:02.733Z,69.99
2022-08-05T03:04:58.529Z,70.46
2022-08-05T03:06:57.162Z,70.36
2022-08-05T03:06:59.510Z,70.29
2022-08-05T03:08:04.579Z,70.36
2022-08-05T03:08:58.530Z,70.49
2022-08-05T03:09:58.529Z,70.49
2022-08-05T03:11:53.642Z,70.39
2022-08-05T03:11:58.526Z,70.09
2022-08-05T03:13:19.538Z,70.29
2022-08-05T03:14:03.084Z,70.49
2022-08-05T03:14:58.529Z,71.19
2022-08-05T03:15:58.531Z,70.59
2022-08-05T03:16:59.075Z,70.49
2022-08-05T03:17:59.414Z,70.59
2022-08-05T03:18:58.537Z,71.49
2022-08-05T03:19:58.678Z,71.29
2022-08-05T03:20:58.533Z,71.49
2022-08-05T03:21:58.592Z,71.29
2022-08-05T03:22:58.531Z,71.19
2022-08-05T03:23:58.532Z,71.39
2022-08-05T03:24:58.532Z,70.69
2022-08-05T03:26:04.971Z,71.39
2022-08-05T03:26:58.532Z,71.19
2022-08-05T03:28:00.120Z,71.69
2022-08-05T03:28:58.532Z,71.69
2022-08-05T03:30:07.208Z,71.49
2022-08-05T03:30:58.532Z,71.69
2022-08-05T03:32:00.701Z,71.79
2022-08-05T03:32:58.537Z,71.69
2022-08-05T03:33:58.532Z,71.49
2022-08-05T03:34:58.532Z,71.39
2022-08-05T03:35:58.533Z,71.59
2022-08-05T03:36:58.531Z,71.89
2022-08-05T03:37:58.555Z,71.49
2022-08-05T03:38:58.602Z,71.69
2022-08-05T03:40:01.646Z,71.69
2022-08-05T03:40:58.665Z,70.99
2022-08-05T03:41:58.533Z,71.09
2022-08-05T03:42:58.532Z,70.59
2022-08-05T03:44:11.246Z,70.99
2022-08-05T03:44:58.532Z,71.29
2022-08-05T03:45:59.081Z,71.29
2022-08-05T03:46:58.533Z,71.59
2022-08-05T03:47:58.538Z,71.49
2022-08-05T03:48:58.535Z,71.19
2022-08-05T03:49:58.532Z,71.59
2022-08-05T03:51:04.840Z,71.79
2022-08-05T03:52:37.043Z,71.56
2022-08-05T03:55:00.395Z,71.15
2022-08-05T03:55:06.917Z,70.99
2022-08-05T03:55:54.083Z,71.19
2022-08-05T03:56:10.215Z,70.56
2022-08-05T03:56:58.912Z,71.19
2022-08-05T03:57:58.533Z,71.06
2022-08-05T03:58:58.530Z,71.26
2022-08-05T03:59:58.532Z,71.09
2022-08-05T04:00:58.601Z,71.26
2022-08-05T04:01:58.900Z,71.29
2022-08-05T04:02:59.232Z,70.89
2022-08-05T04:04:10.276Z,71.89
2022-08-05T04:04:58.536Z,71.56
2022-08-05T04:05:59.261Z,71.39
2022-08-05T04:06:58.536Z,71.19
2022-08-05T04:07:59.081Z,71.19
2022-08-05T04:08:58.535Z,71.79
2022-08-05T04:09:58.534Z,70.89
2022-08-05T04:10:58.537Z,71.15
2022-08-05T04:11:58.535Z,71.09
2022-08-05T04:12:58.821Z,71.06
2022-08-05T04:13:58.537Z,70.86
2022-08-05T04:14:58.593Z,70.36
2022-08-05T04:16:04.434Z,70.46
2022-08-05T04:16:58.543Z,70.56
2022-08-05T04:18:00.105Z,70.32
2022-08-05T04:18:58.536Z,70.03
2022-08-05T04:19:58.711Z,70.12
2022-08-05T04:20:58.536Z,70.23
2022-08-05T04:22:08.747Z,69.23
2022-08-05T04:22:58.536Z,69.23
2022-08-05T04:24:06.226Z,69.09
2022-08-05T04:24:58.539Z,69.29
2022-08-05T04:26:00.847Z,69.29
2022-08-05T04:26:58.537Z,68.60
2022-08-05T04:28:00.642Z,68.70
2022-08-05T04:28:58.537Z,68.56
2022-08-05T04:29:58.543Z,68.37
2022-08-05T04:30:58.537Z,68.43
2022-08-05T04:31:58.539Z,68.56
2022-08-05T04:32:58.539Z,67.93
2022-08-05T04:34:19.697Z,67.83
2022-08-05T04:34:58.540Z,67.54
2022-08-05T04:36:11.244Z,67.24
2022-08-05T04:36:58.540Z,67.73
2022-08-05T04:38:01.968Z,67.43
2022-08-05T04:38:58.559Z,67.54
2022-08-05T04:39:58.540Z,67.43
2022-08-05T04:40:58.780Z,67.43
2022-08-05T04:41:58.543Z,67.00
2022-08-05T04:42:58.545Z,67.50
2022-08-05T04:43:58.541Z,66.97
2022-08-05T04:44:58.545Z,66.77
2022-08-05T04:45:58.545Z,66.38
2022-08-05T04:46:58.767Z,66.17
2022-08-05T04:47:58.543Z,65.98
2022-08-05T04:48:58.848Z,66.71
2022-08-05T04:50:02.635Z,67.07
2022-08-05T04:51:03.673Z,66.38
2022-08-05T04:52:00.596Z,65.58
2022-08-05T04:52:58.549Z,65.05
2022-08-05T04:53:58.554Z,64.45
2022-08-05T04:54:58.914Z,64.42
2022-08-05T04:56:15.441Z,63.70
2022-08-05T04:56:59.717Z,63.30
2022-08-05T04:57:58.559Z,63.46
2022-08-05T04:58:58.555Z,63.20
2022-08-05T04:59:58.980Z,63.40
2022-08-05T05:00:58.646Z,64.03
2022-08-05T05:02:07.284Z,63.82
2022-08-05T05:03:03.658Z,63.79
2022-08-05T05:03:58.561Z,64.16
2022-08-05T05:05:01.611Z,63.27
2022-08-05T05:06:35.885Z,63.54
2022-08-05T05:06:58.562Z,61.62
2022-08-05T05:08:01.822Z,61.82
2022-08-05T05:08:58.566Z,61.52
2022-08-05T05:09:58.574Z,62.12
2022-08-05T05:10:58.573Z,63.17
2022-08-05T05:12:01.825Z,63.89
2022-08-05T05:12:58.602Z,64.72
2022-08-05T05:13:58.570Z,65.55
2022-08-05T05:14:58.576Z,65.25
2022-08-05T05:16:01.770Z,65.35
2022-08-05T05:16:58.573Z,65.42
2022-08-05T05:17:58.848Z,65.31
2022-08-05T05:19:18.090Z,64.72
2022-08-05T05:19:58.579Z,65.12
2022-08-05T05:20:58.650Z,64.98
2022-08-05T05:21:58.582Z,63.86
2022-08-05T05:22:58.580Z,63.57
2022-08-05T05:24:03.991Z,63.86
2022-08-05T05:25:01.344Z,64.06
2022-08-05T05:25:58.584Z,64.36
2022-08-05T05:26:58.588Z,63.96
2022-08-05T05:27:58.594Z,63.86
2022-08-05T05:28:58.588Z,63.86
2022-08-05T05:30:05.053Z,64.56
2022-08-05T05:30:58.590Z,63.86
2022-08-05T05:31:58.591Z,63.96
2022-08-05T05:33:00.548Z,64.36
2022-08-05T05:34:01.887Z,63.57
2022-08-05T05:34:58.593Z,63.76
2022-08-05T05:35:58.596Z,63.96
2022-08-05T05:36:58.596Z,63.96
2022-08-05T05:37:59.574Z,63.96
2022-08-05T05:38:58.632Z,63.57
2022-08-05T05:39:58.603Z,64.06
2022-08-05T05:40:58.607Z,63.86
2022-08-05T05:41:58.605Z,64.06
2022-08-05T05:42:58.604Z,63.57
2022-08-05T05:44:00.586Z,64.16
2022-08-05T05:44:59.537Z,64.76
2022-08-05T05:45:58.609Z,64.69
2022-08-05T05:46:58.609Z,64.19
2022-08-05T05:48:06.293Z,65.39
2022-08-05T05:48:58.611Z,65.48
2022-08-05T05:50:01.495Z,65.42
2022-08-05T05:50:58.612Z,65.12
2022-08-05T05:51:58.615Z,65.22
2022-08-05T05:52:58.612Z,65.72
2022-08-05T05:53:59.896Z,65.31
2022-08-05T05:54:58.618Z,65.72
2022-08-05T05:56:01.367Z,65.12
2022-08-05T05:56:58.616Z,65.31
2022-08-05T05:57:58.624Z,65.52
2022-08-05T05:58:58.623Z,65.72
2022-08-05T05:59:58.622Z,65.12
2022-08-05T06:00:58.623Z,65.31
2022-08-05T06:01:58.634Z,65.22
2022-08-05T06:02:58.627Z,65.31
2022-08-05T06:04:02.127Z,64.82
2022-08-05T06:04:58.691Z,65.12
2022-08-05T06:05:58.650Z,65.61
2022-08-05T06:06:58.632Z,65.81
2022-08-05T06:08:02.296Z,66.01
2022-08-05T06:08:58.660Z,66.31
2022-08-05T06:10:00.937Z,66.61
2022-08-05T06:10:58.631Z,66.64
2022-08-05T06:12:01.192Z,66.81
2022-08-05T06:12:58.635Z,66.94
2022-08-05T06:14:00.436Z,67.44
2022-08-05T06:14:58.638Z,67.44
2022-08-05T06:16:28.839Z,67.30
2022-08-05T06:16:58.639Z,67.40
2022-08-05T06:17:58.637Z,67.14
2022-08-05T06:19:00.783Z,67.60
2022-08-05T06:19:59.511Z,67.70
2022-08-05T06:20:58.638Z,67.63
2022-08-05T06:21:58.644Z,67.40
2022-08-05T06:22:58.643Z,67.14
2022-08-05T06:23:58.642Z,67.04
2022-08-05T06:24:58.642Z,67.21
2022-08-05T06:26:12.150Z,67.11
2022-08-05T06:26:58.644Z,67.18
2022-08-05T06:28:10.757Z,65.48
2022-08-05T06:28:58.645Z,65.16
2022-08-05T06:30:04.275Z,63.21
2022-08-05T06:30:58.656Z,62.99
2022-08-05T06:31:58.650Z,61.18
2022-08-05T06:32:58.651Z,61.70
2022-08-05T06:34:07.570Z,61.99
2022-08-05T06:34:59.199Z,61.37
2022-08-05T06:36:03.926Z,61.40
2022-08-05T06:36:58.791Z,62.59
2022-08-05T06:38:00.977Z,62.92
2022-08-05T06:38:58.686Z,63.81
2022-08-05T06:39:58.660Z,63.87
2022-08-05T06:40:58.660Z,65.09
2022-08-05T06:41:59.140Z,65.59
2022-08-05T06:42:58.658Z,65.78
2022-08-05T06:44:00.768Z,65.78
2022-08-05T06:44:58.665Z,65.32
2022-08-05T06:46:06.981Z,65.78
2022-08-05T06:46:58.682Z,63.71
2022-08-05T06:48:44.067Z,62.56
2022-08-05T06:48:59.678Z,61.21
2022-08-05T06:50:01.185Z,60.69
2022-08-05T06:50:58.674Z,58.36
2022-08-05T06:51:58.674Z,57.87
2022-08-05T06:53:11.315Z,57.89
2022-08-05T06:53:58.681Z,58.39
2022-08-05T06:54:58.683Z,59.14
2022-08-05T06:55:58.684Z,60.32
2022-08-05T06:57:57.652Z,59.93
2022-08-05T06:58:11.805Z,60.82
2022-08-05T06:58:58.688Z,60.85
2022-08-05T06:59:58.698Z,60.49
2022-08-05T07:00:58.743Z,58.59
2022-08-05T07:01:58.699Z,59.05
2022-08-05T07:02:58.703Z,58.36
2022-08-05T07:03:58.700Z,58.46
2022-08-05T07:04:58.704Z,58.26
2022-08-05T07:05:58.708Z,58.26
2022-08-05T07:06:58.708Z,58.04
2022-08-05T07:07:58.712Z,57.45
2022-08-05T07:08:59.081Z,56.46
2022-08-05T07:09:58.723Z,57.02
2022-08-05T07:10:58.721Z,56.50
2022-08-05T07:12:00.615Z,56.78
2022-08-05T07:12:58.727Z,57.57
2022-08-05T07:13:59.857Z,57.87
2022-08-05T07:14:58.730Z,57.73
2022-08-05T07:16:01.236Z,58.45
2022-08-05T07:17:59.723Z,59.95
2022-08-05T07:18:08.903Z,61.07
2022-08-05T07:18:58.749Z,62.39
2022-08-05T07:20:58.748Z,64.43
2022-08-05T07:22:00.527Z,63.87
2022-08-05T07:22:58.756Z,64.76
2022-08-05T07:23:58.754Z,64.86
2022-08-05T07:24:58.759Z,65.06
2022-08-05T07:25:58.761Z,65.49
2022-08-05T07:26:58.758Z,65.69
2022-08-05T07:28:04.161Z,65.49
2022-08-05T07:28:59.792Z,65.42
2022-08-05T07:30:27.724Z,66.41
2022-08-05T07:30:58.770Z,66.71
2022-08-05T07:31:58.769Z,67.31
2022-08-05T07:32:58.795Z,66.91
2022-08-05T07:33:59.821Z,66.78
2022-08-05T07:34:58.788Z,66.88
2022-08-05T07:36:03.943Z,65.69
2022-08-05T07:36:58.781Z,65.36
2022-08-05T07:37:58.792Z,64.83
2022-08-05T07:38:58.852Z,63.68
2022-08-05T07:40:04.362Z,63.98
2022-08-05T07:41:00.302Z,63.91
2022-08-05T07:42:14.720Z,63.61
2022-08-05T07:42:58.787Z,64.83
2022-08-05T07:43:58.923Z,65.86
2022-08-05T07:44:58.795Z,66.18
2022-08-05T07:45:59.082Z,66.88
2022-08-05T07:46:58.796Z,67.01
2022-08-05T07:47:58.799Z,67.83
2022-08-05T07:49:02.529Z,68.23
2022-08-05T07:49:58.802Z,68.33
2022-08-05T07:50:58.802Z,68.73
2022-08-05T07:51:58.806Z,68.73
2022-08-05T07:52:58.808Z,68.96
2022-08-05T07:53:58.808Z,68.86
2022-08-05T07:54:58.810Z,68.96
2022-08-05T07:56:06.554Z,69.69
2022-08-05T07:57:14.012Z,70.68
2022-08-05T07:58:03.128Z,69.99
2022-08-05T07:58:59.546Z,70.68
2022-08-05T07:59:58.816Z,71.58
2022-08-05T08:00:58.835Z,71.91
2022-08-05T08:01:58.836Z,72.61
2022-08-05T08:03:15.201Z,72.11
2022-08-05T08:03:58.824Z,72.34
2022-08-05T08:04:58.820Z,73.04
2022-08-05T08:05:58.822Z,73.44
2022-08-05T08:06:58.823Z,73.34
2022-08-05T08:07:59.603Z,73.14
2022-08-05T08:08:58.823Z,73.87
2022-08-05T08:09:58.828Z,74.77
2022-08-05T08:10:58.828Z,75.37
2022-08-05T08:12:00.078Z,76.56
2022-08-05T08:12:58.871Z,76.56
2022-08-05T08:14:00.862Z,76.66
2022-08-05T08:15:02.414Z,76.26
2022-08-05T08:16:35.793Z,76.86
2022-08-05T08:16:58.832Z,76.76
2022-08-05T08:17:58.834Z,76.46
2022-08-05T08:18:58.837Z,76.96
2022-08-05T08:20:22.477Z,76.56
2022-08-05T08:21:02.503Z,76.86
2022-08-05T08:21:58.836Z,76.66
2022-08-05T08:22:58.836Z,76.76
2022-08-05T08:24:02.727Z,76.66
2022-08-05T08:25:03.082Z,76.56
2022-08-05T08:25:59.831Z,76.96
2022-08-05T08:26:58.840Z,77.86
2022-08-05T08:27:58.842Z,76.96
2022-08-05T08:29:02.168Z,77.46
2022-08-05T08:30:05.749Z,77.95
2022-08-05T08:30:58.846Z,77.56
2022-08-05T08:31:58.844Z,77.56
2022-08-05T08:33:02.668Z,77.86
2022-08-05T08:33:58.847Z,76.46
2022-08-05T08:34:58.851Z,76.46
2022-08-05T08:36:18.444Z,76.72
2022-08-05T08:37:04.893Z,77.02
2022-08-05T08:37:58.850Z,77.32
2022-08-05T08:38:58.932Z,76.92
2022-08-05T08:39:58.886Z,76.39
2022-08-05T08:40:58.855Z,76.09
2022-08-05T08:41:59.778Z,75.20
2022-08-05T08:45:16.726Z,74.80
2022-08-05T08:45:18.027Z,74.40
2022-08-05T08:45:18.731Z,74.10
2022-08-05T08:45:58.856Z,74.99
2022-08-05T08:46:58.859Z,74.50
2022-08-05T08:48:06.746Z,74.30
2022-08-05T08:50:07.797Z,74.73
2022-08-05T08:50:22.230Z,74.93
2022-08-05T08:51:07.746Z,74.84
2022-08-05T08:52:03.215Z,74.97
2022-08-05T08:52:58.863Z,75.33
2022-08-05T08:53:58.863Z,75.16
2022-08-05T08:54:58.863Z,75.13
2022-08-05T08:56:05.016Z,75.16
2022-08-05T08:56:58.866Z,75.27
2022-08-05T08:57:58.883Z,75.96
2022-08-05T08:58:58.869Z,76.06
2022-08-05T08:59:58.869Z,76.56
2022-08-05T09:00:58.893Z,76.86
2022-08-05T09:02:01.169Z,75.16
2022-08-05T09:02:58.873Z,76.66
2022-08-05T09:03:58.874Z,76.96
2022-08-05T09:05:17.626Z,77.20
2022-08-05T09:06:08.867Z,76.60
2022-08-05T09:06:58.914Z,77.20
2022-08-05T09:07:59.227Z,77.20
2022-08-05T09:08:58.876Z,77.56
2022-08-05T09:09:58.877Z,77.39
2022-08-05T09:10:58.876Z,77.09
2022-08-05T09:12:03.390Z,77.06
2022-08-05T09:13:04.511Z,76.60
2022-08-05T09:14:00.767Z,76.76
2022-08-05T09:15:05.622Z,78.06
2022-08-05T09:15:58.882Z,76.76
2022-08-05T09:16:58.881Z,76.96
2022-08-05T09:17:58.882Z,76.17
2022-08-05T09:18:59.417Z,76.26
2022-08-05T09:20:02.926Z,76.46
2022-08-05T09:20:58.884Z,76.46
2022-08-05T09:22:22.888Z,76.26
2022-08-05T09:23:04.871Z,75.87
2022-08-05T09:24:02.349Z,76.23
2022-08-05T09:24:58.898Z,75.03
2022-08-05T09:26:02.798Z,75.33
2022-08-05T09:26:58.888Z,76.09
2022-08-05T09:28:05.139Z,75.69
2022-08-05T09:28:58.888Z,74.86
2022-08-05T09:30:01.230Z,74.16
2022-08-05T09:30:58.893Z,74.26
2022-08-05T09:32:40.852Z,73.77
2022-08-05T09:32:58.900Z,74.76
2022-08-05T09:33:59.276Z,74.16
2022-08-05T09:34:58.896Z,73.24
2022-08-05T09:35:58.896Z,73.43
2022-08-05T09:36:59.824Z,72.74
2022-08-05T09:38:16.366Z,72.74
2022-08-05T09:38:58.932Z,72.24
2022-08-05T09:39:58.962Z,72.24
2022-08-05T09:40:58.902Z,72.84
2022-08-05T09:41:58.901Z,72.84
2022-08-05T09:42:58.902Z,72.84
2022-08-05T09:43:58.903Z,72.34
2022-08-05T09:45:17.596Z,72.11
2022-08-05T09:46:06.828Z,72.01
2022-08-05T09:46:58.905Z,72.41
2022-08-05T09:47:58.910Z,72.11
2022-08-05T09:49:07.595Z,71.81
2022-08-05T09:50:02.364Z,72.04
2022-08-05T09:50:58.911Z,72.24
2022-08-05T09:51:58.912Z,72.64
2022-08-05T09:52:58.915Z,74.26
2022-08-05T09:53:59.375Z,75.33
2022-08-05T09:54:58.916Z,76.86
2022-08-05T09:56:04.036Z,77.63
2022-08-05T09:57:01.722Z,80.06
2022-08-05T09:57:59.982Z,81.46
2022-08-05T09:58:58.931Z,82.14
2022-08-05T09:59:58.920Z,83.19
2022-08-05T10:00:58.919Z,83.69
2022-08-05T10:01:58.923Z,83.43
2022-08-05T10:02:59.250Z,83.87
2022-08-05T10:03:59.887Z,84.27
2022-08-05T10:04:58.924Z,85.41
2022-08-05T10:05:58.926Z,85.47
2022-08-05T10:07:01.430Z,86.31
2022-08-05T10:08:35.972Z,86.17
2022-08-05T10:08:58.926Z,86.66
2022-08-05T10:10:14.042Z,86.87
2022-08-05T10:10:58.929Z,85.93
2022-08-05T10:11:58.928Z,85.83
2022-08-05T10:12:58.928Z,84.73
2022-08-05T10:13:58.930Z,85.63
2022-08-05T10:14:58.934Z,86.77
2022-08-05T10:15:58.931Z,85.33
2022-08-05T10:16:58.935Z,85.42
2022-08-05T10:17:58.936Z,85.63
2022-08-05T10:18:58.933Z,86.33
2022-08-05T10:20:03.948Z,86.08
2022-08-05T10:20:58.936Z,85.39
2022-08-05T10:21:58.936Z,84.45
2022-08-05T10:22:58.935Z,83.81
2022-08-05T10:24:00.323Z,83.61
2022-08-05T10:24:58.934Z,82.67
2022-08-05T10:25:58.937Z,81.68
2022-08-05T10:27:00.505Z,82.62
2022-08-05T10:28:13.576Z,82.57
2022-08-05T10:28:58.979Z,82.62
2022-08-05T10:31:20.356Z,82.42
2022-08-05T10:32:47.374Z,82.37
2022-08-05T10:32:51.846Z,81.94
2022-08-05T10:33:01.911Z,82.14
2022-08-05T10:33:58.941Z,82.70
2022-08-05T10:35:00.832Z,82.40
2022-08-05T10:36:00.071Z,81.40
2022-08-05T10:36:58.946Z,80.27
2022-08-05T10:37:58.945Z,80.17
2022-08-05T10:38:58.986Z,79.08
2022-08-05T10:40:04.177Z,79.63
2022-08-05T10:40:59.115Z,78.94
2022-08-05T10:42:00.994Z,78.34
2022-08-05T10:42:58.954Z,77.31
2022-08-05T10:43:59.281Z,74.76
2022-08-05T10:44:58.953Z,74.46
2022-08-05T10:46:06.188Z,75.02
2022-08-05T10:46:58.954Z,74.93
2022-08-05T10:48:31.962Z,74.63
2022-08-05T10:49:02.652Z,73.60
2022-08-05T10:50:31.980Z,74.06
2022-08-05T10:50:58.957Z,72.77
2022-08-05T10:52:00.255Z,72.77
2022-08-05T10:52:59.008Z,72.73
2022-08-05T10:54:00.888Z,72.44
2022-08-05T10:54:58.976Z,70.88
2022-08-05T10:56:04.632Z,72.31
2022-08-05T10:56:58.972Z,72.64
2022-08-05T10:57:58.970Z,73.50
2022-08-05T10:59:07.199Z,73.40
2022-08-05T11:00:02.451Z,72.97
2022-08-05T11:01:02.774Z,72.37
2022-08-05T11:02:05.381Z,72.17
2022-08-05T11:02:58.981Z,72.53
2022-08-05T11:03:59.031Z,72.14
2022-08-05T11:04:58.982Z,69.65
2022-08-05T11:05:58.986Z,68.76
2022-08-05T11:06:58.984Z,68.96
2022-08-05T11:08:01.123Z,69.79
2022-08-05T11:08:58.988Z,70.22
2022-08-05T11:10:04.086Z,69.92
2022-08-05T11:11:00.886Z,72.07
2022-08-05T11:11:58.991Z,71.08
2022-08-05T11:12:59.000Z,69.99
2022-08-05T11:13:58.994Z,70.48
2022-08-05T11:15:11.911Z,70.06
2022-08-05T11:16:01.576Z,68.76
2022-08-05T11:17:01.171Z,68.04
2022-08-05T11:18:03.730Z,68.04
2022-08-05T11:18:59.003Z,67.11
2022-08-05T11:20:10.501Z,66.88
2022-08-05T11:20:59.233Z,65.20
2022-08-05T11:21:59.008Z,66.68
2022-08-05T11:23:05.763Z,67.94
2022-08-05T11:24:04.139Z,65.66
2022-08-05T11:26:03.149Z,65.36
2022-08-05T11:26:05.736Z,65.73
2022-08-05T11:26:59.018Z,67.02
2022-08-05T11:28:00.550Z,65.10
2022-08-05T11:29:06.744Z,63.62
2022-08-05T11:29:59.022Z,62.56
2022-08-05T11:30:59.025Z,63.25
2022-08-05T11:32:00.469Z,63.65
2022-08-05T11:32:59.030Z,63.58
2022-08-05T11:33:59.030Z,65.36
2022-08-05T11:34:59.032Z,64.74
2022-08-05T11:36:07.706Z,63.75
2022-08-05T11:36:59.037Z,64.14
2022-08-05T11:38:29.638Z,64.84
2022-08-05T11:38:59.357Z,63.62
2022-08-05T11:40:03.186Z,63.39
2022-08-05T11:41:03.430Z,62.79
2022-08-05T11:42:04.207Z,63.12
2022-08-05T11:42:59.050Z,62.99
2022-08-05T11:44:05.640Z,63.82
2022-08-05T11:44:59.051Z,63.42
2022-08-05T11:46:27.344Z,62.43
2022-08-05T11:47:12.054Z,62.43
2022-08-05T11:47:59.062Z,61.31
2022-08-05T11:48:59.065Z,62.90
2022-08-05T11:49:59.062Z,59.44
2022-08-05T11:50:59.063Z,60.22
2022-08-05T11:51:59.067Z,59.14
2022-08-05T11:52:59.069Z,60.22
2022-08-05T11:53:59.068Z,61.48
2022-08-05T11:54:59.072Z,61.94
2022-08-05T11:55:59.073Z,58.88
2022-08-05T11:56:59.078Z,58.75
2022-08-05T11:58:09.557Z,59.25
2022-08-05T11:58:59.079Z,58.95
2022-08-05T11:59:59.084Z,58.16
2022-08-05T12:00:59.088Z,59.74
2022-08-05T12:01:59.090Z,58.75
2022-08-05T12:02:59.143Z,58.26
2022-08-05T12:03:59.090Z,58.26
2022-08-05T12:04:59.971Z,58.75
2022-08-05T12:05:59.102Z,59.25
2022-08-05T12:06:59.099Z,58.88
2022-08-05T12:08:03.702Z,59.15
2022-08-05T12:08:59.104Z,60.27
2022-08-05T12:10:01.958Z,60.86
2022-08-05T12:10:59.108Z,59.94
2022-08-05T12:11:59.112Z,60.14
2022-08-05T12:13:00.310Z,60.04
2022-08-05T12:13:59.431Z,58.46
2022-08-05T12:14:59.120Z,58.29
2022-08-05T12:15:59.121Z,58.39
2022-08-05T12:16:59.123Z,57.89
2022-08-05T12:18:10.231Z,58.02
2022-08-05T12:18:59.130Z,57.70
2022-08-05T12:20:25.691Z,57.70
2022-08-05T12:20:59.134Z,57.40
2022-08-05T12:21:59.136Z,58.59
2022-08-05T12:22:59.152Z,59.47
2022-08-05T12:24:00.099Z,60.07
2022-08-05T12:24:59.144Z,59.74
2022-08-05T12:25:59.146Z,58.36
2022-08-05T12:26:59.149Z,58.75
2022-08-05T12:27:59.152Z,58.16
2022-08-05T12:28:59.157Z,57.87
2022-08-05T12:29:59.160Z,57.64
2022-08-05T12:31:02.273Z,57.74
2022-08-05T12:32:02.190Z,58.20
2022-08-05T12:33:07.295Z,57.51
2022-08-05T12:33:59.166Z,55.44
2022-08-05T12:34:59.168Z,55.94
2022-08-05T12:35:59.235Z,56.56
2022-08-05T12:36:59.174Z,56.85
2022-08-05T12:37:59.177Z,56.85
2022-08-05T12:38:59.244Z,57.24
2022-08-05T12:40:03.184Z,57.84
2022-08-05T12:40:59.183Z,57.42
2022-08-05T12:41:59.187Z,57.34
2022-08-05T12:42:59.192Z,56.53
2022-08-05T12:43:59.193Z,56.82
2022-08-05T12:44:59.195Z,56.60
2022-08-05T12:45:59.200Z,56.50
2022-08-05T12:46:59.204Z,55.09
2022-08-05T12:48:01.725Z,54.30
2022-08-05T12:48:59.205Z,54.21
2022-08-05T12:50:04.464Z,54.13
2022-08-05T12:50:59.217Z,54.82
2022-08-05T12:52:12.832Z,55.81
2022-08-05T12:52:59.218Z,54.93
2022-08-05T12:53:59.224Z,54.75